createdAt,value
2018-04-22T00:00:14.417Z,99047.53
2018-04-22T00:02:42.598Z,99053.42
2018-04-22T00:05:16.088Z,99047.38
2018-04-22T00:07:44.463Z,99050.63
2018-04-22T00:10:16.960Z,99048.39
2018-04-22T00:12:45.359Z,99049.17
2018-04-22T00:15:16.842Z,99059.19
2018-04-22T00:17:45.231Z,99059.42
2018-04-22T00:20:13.636Z,99053.65
2018-04-22T00:22:42.038Z,99048.86
2018-04-22T00:25:16.339Z,99049.25
2018-04-22T00:27:44.727Z,99057.46
2018-04-22T00:30:13.151Z,98992.00
2018-04-22T00:32:41.528Z,99072.30
2018-04-22T00:35:16.433Z,99073.54
2018-04-22T00:37:44.844Z,99071.97
2018-04-22T00:40:17.377Z,99063.41
2018-04-22T00:42:45.781Z,99066.98
2018-04-22T00:45:16.649Z,99070.70
2018-04-22T00:47:45.112Z,99071.60
2018-04-22T00:50:17.598Z,99068.66
2018-04-22T00:52:45.990Z,99074.70
2018-04-22T00:55:16.701Z,99057.53
2018-04-22T00:57:45.078Z,99071.17
2018-04-22T01:00:16.681Z,99068.70
2018-04-22T01:02:45.081Z,99070.99
2018-04-22T01:05:17.445Z,99073.65
2018-04-22T01:07:45.825Z,99072.82
2018-04-22T01:10:15.648Z,99070.59
2018-04-22T01:12:44.017Z,99073.08
2018-04-22T01:15:16.566Z,99080.89
2018-04-22T01:17:44.942Z,99061.67
2018-04-22T01:20:13.346Z,99078.37
2018-04-22T01:22:41.743Z,99070.41
2018-04-22T01:25:16.568Z,99082.39
2018-04-22T01:27:44.949Z,99079.97
2018-04-22T01:30:14.611Z,99081.17
2018-04-22T01:32:43.013Z,99080.41
2018-04-22T01:35:17.081Z,99080.76
2018-04-22T01:37:45.480Z,99079.11
2018-04-22T01:40:14.913Z,99079.74
2018-04-22T01:42:43.272Z,99079.98
2018-04-22T01:45:16.846Z,99082.80
2018-04-22T01:47:44.918Z,99085.17
2018-04-22T01:50:17.057Z,99082.09
2018-04-22T01:52:45.441Z,99082.31
2018-04-22T01:55:17.502Z,99079.50
2018-04-22T01:57:46.061Z,99083.14
2018-04-22T02:00:16.080Z,99082.66
2018-04-22T02:02:44.448Z,99075.36
2018-04-22T02:05:17.179Z,99077.45
2018-04-22T02:07:45.601Z,99062.81
2018-04-22T02:10:17.315Z,99039.25
2018-04-22T02:12:45.931Z,99062.51
2018-04-22T02:15:15.693Z,99062.03
2018-04-22T02:17:44.089Z,99058.97
2018-04-22T02:20:13.261Z,99015.63
2018-04-22T02:22:41.662Z,99065.52
2018-04-22T02:25:15.301Z,99068.59
2018-04-22T02:27:43.697Z,99061.20
2018-04-22T02:30:16.786Z,99072.67
2018-04-22T02:32:45.193Z,99073.75
2018-04-22T02:35:18.097Z,99074.08
2018-04-22T02:37:46.492Z,99068.66
2018-04-22T02:40:14.874Z,99074.27
2018-04-22T02:42:43.244Z,99071.66
2018-04-22T02:45:13.335Z,99028.06
2018-04-22T02:47:41.719Z,99070.47
2018-04-22T02:50:13.152Z,99076.09
2018-04-22T02:52:41.537Z,99080.04
2018-04-22T02:55:13.591Z,99077.27
2018-04-22T02:57:41.982Z,99074.61
2018-04-22T03:00:16.882Z,99072.30
2018-04-22T03:02:45.322Z,99073.31
2018-04-22T03:05:15.738Z,99071.94
2018-04-22T03:07:44.115Z,99071.33
2018-04-22T03:10:15.539Z,99073.09
2018-04-22T03:12:43.955Z,99070.90
2018-04-22T03:15:16.890Z,99067.59
2018-04-22T03:17:45.064Z,99057.63
2018-04-22T03:20:16.424Z,99003.91
2018-04-22T03:22:44.825Z,99074.10
2018-04-22T03:25:16.029Z,99074.36
2018-04-22T03:27:44.473Z,99075.28
2018-04-22T03:30:16.722Z,99076.19
2018-04-22T03:32:45.147Z,99075.50
2018-04-22T03:35:17.139Z,99078.77
2018-04-22T03:37:45.520Z,99076.50
2018-04-22T03:40:16.973Z,99047.73
2018-04-22T03:42:45.370Z,99081.57
2018-04-22T03:45:16.774Z,99087.14
2018-04-22T03:47:45.157Z,99095.15
2018-04-22T03:50:16.788Z,99081.77
2018-04-22T03:52:45.170Z,99095.61
2018-04-22T03:55:17.081Z,99099.20
2018-04-22T03:57:45.476Z,99096.61
2018-04-22T04:00:15.990Z,99102.52
2018-04-22T04:02:44.379Z,99096.66
2018-04-22T04:05:16.324Z,99084.23
2018-04-22T04:07:44.709Z,99104.78
2018-04-22T04:10:17.324Z,99107.18
2018-04-22T04:12:45.713Z,99104.14
2018-04-22T04:15:16.415Z,99040.86
2018-04-22T04:17:44.243Z,99108.39
2018-04-22T04:20:23.773Z,99113.20
2018-04-22T04:22:52.160Z,99116.41
2018-04-22T04:28:38.017Z,99110.19
2018-04-22T04:31:06.406Z,99121.09
2018-04-22T04:33:34.794Z,99119.84
2018-04-22T04:36:03.205Z,99123.02
2018-04-22T04:38:31.828Z,99128.19
2018-04-22T04:41:00.217Z,99046.00
2018-04-22T04:43:28.599Z,99128.88
2018-04-22T04:45:57.173Z,99133.23
2018-04-22T04:48:25.578Z,99137.67
2018-04-22T04:50:53.971Z,99135.38
2018-04-22T04:53:22.371Z,99143.30
2018-04-22T04:55:50.779Z,99141.00
2018-04-22T04:58:19.210Z,99143.59
2018-04-22T05:00:47.638Z,99144.51
2018-04-22T05:03:16.029Z,99142.31
2018-04-22T05:05:44.440Z,99154.06
2018-04-22T05:08:12.850Z,99146.17
2018-04-22T05:10:41.358Z,99147.52
2018-04-22T05:13:09.879Z,99155.12
2018-04-22T05:15:38.305Z,99145.05
2018-04-22T05:18:06.714Z,99149.43
2018-04-22T05:20:37.720Z,99157.31
2018-04-22T05:23:06.125Z,99155.73
2018-04-22T05:25:34.508Z,99149.13
2018-04-22T05:28:12.615Z,99153.30
2018-04-22T05:30:40.995Z,99159.98
2018-04-22T05:33:09.413Z,99154.66
2018-04-22T05:35:37.818Z,99156.80
2018-04-22T05:38:06.249Z,99156.44
2018-04-22T05:40:34.663Z,99156.95
2018-04-22T05:43:03.048Z,99155.62
2018-04-22T05:45:31.440Z,99159.00
2018-04-22T05:47:59.859Z,99143.67
2018-04-22T05:50:28.326Z,99156.11
2018-04-22T05:52:56.794Z,99163.48
2018-04-22T05:55:25.181Z,99145.50
2018-04-22T05:57:53.575Z,99152.44
2018-04-22T06:00:21.976Z,99157.02
2018-04-22T06:02:50.373Z,99158.98
2018-04-22T06:05:19.958Z,99158.14
2018-04-22T06:07:48.358Z,99163.88
2018-04-22T06:10:16.759Z,99159.50
2018-04-22T06:12:45.153Z,99158.62
2018-04-22T06:15:17.470Z,99159.08
2018-04-22T06:17:45.858Z,99159.23
2018-04-22T06:20:14.231Z,99159.50
2018-04-22T06:22:42.804Z,99160.70
2018-04-22T06:25:16.471Z,99115.80
2018-04-22T06:27:44.887Z,99164.92
2018-04-22T06:30:16.155Z,99169.41
2018-04-22T06:32:44.526Z,99161.89
2018-04-22T06:35:16.684Z,99159.95
2018-04-22T06:37:45.520Z,99158.23
2018-04-22T06:40:15.027Z,99161.54
2018-04-22T06:42:43.567Z,99157.06
2018-04-22T06:45:17.024Z,99157.77
2018-04-22T06:47:45.423Z,99164.77
2018-04-22T06:50:13.843Z,99165.80
2018-04-22T06:52:42.227Z,99165.95
2018-04-22T06:55:16.173Z,99162.13
2018-04-22T06:57:44.577Z,99164.72
2018-04-22T07:00:17.070Z,99160.66
2018-04-22T07:02:45.473Z,99166.80
2018-04-22T07:05:14.825Z,99133.89
2018-04-22T07:07:43.293Z,99165.71
2018-04-22T07:10:15.454Z,99116.14
2018-04-22T07:12:43.836Z,99166.95
2018-04-22T07:15:16.222Z,99159.42
2018-04-22T07:17:44.645Z,99163.66
2018-04-22T07:20:16.641Z,99067.08
2018-04-22T07:22:46.310Z,99165.65
2018-04-22T07:25:15.580Z,99101.72
2018-04-22T07:27:43.997Z,99162.20
2018-04-22T07:30:16.278Z,99114.11
2018-04-22T07:32:44.673Z,99169.78
2018-04-22T07:35:16.703Z,99171.16
2018-04-22T07:37:45.136Z,99168.21
2018-04-22T07:40:16.038Z,99166.62
2018-04-22T07:42:44.456Z,99153.73
2018-04-22T07:45:17.388Z,99167.95
2018-04-22T07:47:45.797Z,99144.97
2018-04-22T07:50:16.509Z,99066.94
2018-04-22T07:52:44.995Z,99167.17
2018-04-22T07:55:17.970Z,99116.10
2018-04-22T07:57:46.388Z,99170.09
2018-04-22T08:00:15.637Z,99177.33
2018-04-22T08:02:44.164Z,99172.80
2018-04-22T08:05:15.081Z,99175.12
2018-04-22T08:07:43.511Z,99170.55
2018-04-22T08:10:12.559Z,99170.40
2018-04-22T08:12:41.579Z,99176.50
2018-04-22T08:15:12.791Z,99175.63
2018-04-22T08:17:41.226Z,99168.93
2018-04-22T08:20:17.539Z,99173.14
2018-04-22T08:22:45.917Z,99172.62
2018-04-22T08:25:16.320Z,99152.44
2018-04-22T08:27:44.868Z,99170.77
2018-04-22T08:30:16.984Z,99173.39
2018-04-22T08:32:45.543Z,99169.76
2018-04-22T08:35:17.059Z,99111.19
2018-04-22T08:37:45.510Z,99164.11
2018-04-22T08:40:15.449Z,99173.84
2018-04-22T08:42:43.868Z,99159.31
2018-04-22T08:45:16.565Z,99127.38
2018-04-22T08:47:45.004Z,99165.66
2018-04-22T08:50:13.389Z,99102.15
2018-04-22T08:52:41.787Z,99173.20
2018-04-22T08:55:15.878Z,99105.62
2018-04-22T08:57:44.270Z,99168.52
2018-04-22T09:00:16.843Z,99168.71
2018-04-22T09:02:45.275Z,99172.66
2018-04-22T09:05:15.680Z,99165.11
2018-04-22T09:07:44.092Z,99165.95
2018-04-22T09:10:13.016Z,99163.65
2018-04-22T09:12:41.431Z,99163.81
2018-04-22T09:15:13.385Z,99152.45
2018-04-22T09:17:41.759Z,99152.09
2018-04-22T09:20:17.885Z,99155.39
2018-04-22T09:22:46.341Z,99155.33
2018-04-22T09:25:15.696Z,99142.69
2018-04-22T09:27:44.084Z,99145.63
2018-04-22T09:30:13.443Z,99145.01
2018-04-22T09:32:41.846Z,99140.41
2018-04-22T09:35:12.758Z,99142.89
2018-04-22T09:37:41.176Z,99135.98
2018-04-22T09:40:15.797Z,99124.20
2018-04-22T09:42:44.201Z,99134.23
2018-04-22T09:45:13.301Z,99127.62
2018-04-22T09:47:41.734Z,99129.35
2018-04-22T09:50:16.990Z,99118.59
2018-04-22T09:52:45.393Z,99126.41
2018-04-22T09:55:16.291Z,99115.98
2018-04-22T09:57:44.666Z,99119.41
2018-04-22T10:00:18.496Z,99118.06
2018-04-22T10:02:48.442Z,99113.29
2018-04-22T10:05:22.852Z,99110.69
2018-04-22T10:07:51.315Z,99104.52
2018-04-22T10:10:19.794Z,99098.98
2018-04-22T10:12:48.364Z,99102.94
2018-04-22T10:15:16.753Z,99096.27
2018-04-22T10:17:45.160Z,99094.41
2018-04-22T10:20:15.446Z,99089.13
2018-04-22T10:22:43.875Z,99084.06
2018-04-22T10:25:12.821Z,99088.36
2018-04-22T10:27:41.279Z,99080.83
2018-04-22T10:30:14.486Z,99085.70
2018-04-22T10:32:42.880Z,99074.03
2018-04-22T10:35:11.279Z,99079.97
2018-04-22T10:37:39.669Z,99078.87
2018-04-22T10:40:09.345Z,99080.78
2018-04-22T10:42:38.011Z,99078.48
2018-04-22T10:45:08.146Z,99049.99
2018-04-22T10:47:36.525Z,99071.73
2018-04-22T10:50:11.469Z,99073.52
2018-04-22T10:52:39.904Z,99073.50
2018-04-22T10:55:10.939Z,99071.12
2018-04-22T10:57:39.471Z,99069.34
2018-04-22T11:00:15.565Z,99067.56
2018-04-22T11:02:43.948Z,99060.09
2018-04-22T11:05:16.530Z,99021.89
2018-04-22T11:07:46.001Z,99054.28
2018-04-22T11:10:14.436Z,99061.08
2018-04-22T11:12:42.829Z,99051.63
2018-04-22T11:15:15.736Z,99050.09
2018-04-22T11:17:44.136Z,99044.41
2018-04-22T11:20:15.639Z,99047.07
2018-04-22T11:22:44.090Z,99044.91
2018-04-22T11:25:16.463Z,98962.95
2018-04-22T11:27:44.871Z,99047.72
2018-04-22T11:30:13.969Z,99045.98
2018-04-22T11:32:42.407Z,99041.95
2018-04-22T11:35:17.784Z,99040.16
2018-04-22T11:37:47.203Z,99017.36
2018-04-22T11:40:15.804Z,99029.17
2018-04-22T11:42:44.234Z,99027.81
2018-04-22T11:45:16.400Z,99026.09
2018-04-22T11:47:44.823Z,99024.70
2018-04-22T11:50:13.801Z,99021.67
2018-04-22T11:52:42.203Z,99021.34
2018-04-22T11:55:13.405Z,99021.45
2018-04-22T11:57:41.796Z,99018.11
2018-04-22T12:00:15.664Z,99010.88
2018-04-22T12:02:44.083Z,99008.70
2018-04-22T12:05:16.633Z,99001.28
2018-04-22T12:07:45.009Z,99007.83
2018-04-22T12:10:16.465Z,99015.17
2018-04-22T12:12:44.841Z,99009.33
2018-04-22T12:15:16.725Z,98948.25
2018-04-22T12:17:45.195Z,99005.87
2018-04-22T12:20:16.061Z,99001.67
2018-04-22T12:22:44.469Z,98992.91
2018-04-22T12:25:17.063Z,98911.16
2018-04-22T12:27:45.446Z,98989.67
2018-04-22T12:30:13.872Z,98990.39
2018-04-22T12:32:42.067Z,98982.13
2018-04-22T12:35:16.264Z,98982.55
2018-04-22T12:37:44.783Z,98978.48
2018-04-22T12:40:17.067Z,98979.75
2018-04-22T12:42:45.442Z,98983.97
2018-04-22T12:45:13.870Z,98973.05
2018-04-22T12:47:42.285Z,98972.41
2018-04-22T12:50:16.521Z,98974.02
2018-04-22T12:52:44.911Z,98975.17
2018-04-22T12:55:17.244Z,98962.80
2018-04-22T12:57:45.695Z,98958.97
2018-04-22T13:00:16.503Z,98958.38
2018-04-22T13:02:44.918Z,98965.12
2018-04-22T13:05:16.805Z,98903.39
2018-04-22T13:07:45.221Z,98949.16
2018-04-22T13:10:14.698Z,98947.66
2018-04-22T13:12:43.083Z,98932.52
2018-04-22T13:15:15.990Z,98931.91
2018-04-22T13:17:44.425Z,98935.95
2018-04-22T13:20:16.408Z,98921.86
2018-04-22T13:22:44.806Z,98940.56
2018-04-22T13:25:17.299Z,98937.93
2018-04-22T13:27:45.694Z,98925.34
2018-04-22T13:30:17.690Z,98922.09
2018-04-22T13:32:46.069Z,98922.02
2018-04-22T13:35:17.490Z,98928.39
2018-04-22T13:37:45.865Z,98929.91
2018-04-22T13:40:14.320Z,98923.30
2018-04-22T13:42:42.701Z,98924.50
2018-04-22T13:45:14.821Z,98882.05
2018-04-22T13:47:43.220Z,98920.28
2018-04-22T13:50:17.251Z,98914.30
2018-04-22T13:52:45.643Z,98909.89
2018-04-22T13:55:17.200Z,98912.88
2018-04-22T13:57:45.614Z,98883.00
2018-04-22T14:00:14.036Z,98904.78
2018-04-22T14:02:42.413Z,98897.76
2018-04-22T14:05:17.712Z,98893.05
2018-04-22T14:07:46.133Z,98894.42
2018-04-22T14:10:14.519Z,98892.75
2018-04-22T14:12:43.018Z,98886.77
2018-04-22T14:15:13.030Z,98884.84
2018-04-22T14:17:41.406Z,98880.48
2018-04-22T14:20:16.230Z,98880.98
2018-04-22T14:22:44.639Z,98885.77
2018-04-22T14:25:17.392Z,98879.78
2018-04-22T14:27:45.905Z,98879.10
2018-04-22T14:30:16.097Z,98891.80
2018-04-22T14:32:44.500Z,98873.84
2018-04-22T14:35:14.213Z,98893.50
2018-04-22T14:37:42.632Z,98879.50
2018-04-22T14:40:16.624Z,98825.62
2018-04-22T14:42:45.028Z,98873.47
2018-04-22T14:45:24.774Z,98876.28
2018-04-22T14:47:53.256Z,98878.55
2018-04-22T14:50:21.634Z,98868.41
2018-04-22T14:52:50.027Z,98871.19
2018-04-22T14:55:18.406Z,98874.55
2018-04-22T14:57:46.885Z,98849.55
2018-04-22T15:00:18.706Z,98857.43
2018-04-22T15:02:47.090Z,98855.28
2018-04-22T15:05:15.527Z,98852.09
2018-04-22T15:07:44.118Z,98855.92
2018-04-22T15:10:15.151Z,98844.20
2018-04-22T15:12:43.557Z,98853.81
2018-04-22T15:15:16.227Z,98850.41
2018-04-22T15:17:44.692Z,98852.44
2018-04-22T15:20:13.075Z,98846.69
2018-04-22T15:22:41.477Z,98799.73
2018-04-22T15:25:16.477Z,98796.25
2018-04-22T15:27:44.863Z,98850.45
2018-04-22T15:30:15.461Z,98849.91
2018-04-22T15:32:43.906Z,98847.06
2018-04-22T15:35:16.864Z,98791.25
2018-04-22T15:37:45.248Z,98844.67
2018-04-22T15:40:13.657Z,98845.27
2018-04-22T15:42:42.103Z,98842.52
2018-04-22T15:45:15.273Z,98849.81
2018-04-22T15:47:43.662Z,98845.83
2018-04-22T15:50:17.917Z,98846.84
2018-04-22T15:52:46.330Z,98844.41
2018-04-22T15:55:17.783Z,98842.91
2018-04-22T15:57:46.222Z,98837.56
2018-04-22T16:00:14.683Z,98839.02
2018-04-22T16:02:43.078Z,98828.86
2018-04-22T16:05:17.675Z,98836.73
2018-04-22T16:07:46.110Z,98845.91
2018-04-22T16:10:17.651Z,98842.77
2018-04-22T16:12:46.050Z,98840.75
2018-04-22T16:15:14.499Z,98843.58
2018-04-22T16:17:42.925Z,98845.66
2018-04-22T16:20:17.302Z,98849.30
2018-04-22T16:22:45.761Z,98839.22
2018-04-22T16:25:14.183Z,98846.45
2018-04-22T16:27:42.570Z,98851.43
2018-04-22T16:30:16.676Z,98845.25
2018-04-22T16:32:45.573Z,98855.14
2018-04-22T16:35:16.404Z,98757.09
2018-04-22T16:37:44.989Z,98850.64
2018-04-22T16:40:16.314Z,98844.88
2018-04-22T16:42:44.695Z,98841.30
2018-04-22T16:45:16.851Z,98845.29
2018-04-22T16:47:45.299Z,98833.30
2018-04-22T16:50:16.896Z,98745.30
2018-04-22T16:52:45.304Z,98841.83
2018-04-22T16:55:16.757Z,98838.23
2018-04-22T16:57:45.182Z,98839.20
2018-04-22T17:00:14.849Z,98845.64
2018-04-22T17:02:43.223Z,98841.08
2018-04-22T17:05:17.881Z,98837.69
2018-04-22T17:07:46.339Z,98842.01
2018-04-22T17:10:16.725Z,98841.78
2018-04-22T17:12:45.190Z,98850.23
2018-04-22T17:15:17.446Z,98847.58
2018-04-22T17:17:45.867Z,98845.31
2018-04-22T17:20:16.012Z,98846.66
2018-04-22T17:22:44.382Z,98848.28
2018-04-22T17:25:16.958Z,98849.57
2018-04-22T17:27:45.386Z,98856.48
2018-04-22T17:30:16.715Z,98856.27
2018-04-22T17:32:45.110Z,98865.01
2018-04-22T17:35:16.520Z,98861.48
2018-04-22T17:37:44.922Z,98866.95
2018-04-22T17:40:16.867Z,98870.66
2018-04-22T17:42:45.282Z,98874.11
2018-04-22T17:45:17.818Z,98871.08
2018-04-22T17:47:46.209Z,98879.95
2018-04-22T17:50:14.587Z,98882.88
2018-04-22T17:52:43.043Z,98880.04
2018-04-22T17:55:17.386Z,98878.84
2018-04-22T17:57:45.769Z,98886.26
2018-04-22T18:00:16.804Z,98840.06
2018-04-22T18:02:45.218Z,98885.41
2018-04-22T18:05:16.945Z,98890.29
2018-04-22T18:07:45.381Z,98894.75
2018-04-22T18:10:16.113Z,98893.48
2018-04-22T18:12:44.489Z,98897.22
2018-04-22T18:15:15.803Z,98898.48
2018-04-22T18:17:44.185Z,98898.46
2018-04-22T18:20:25.165Z,98903.59
2018-04-22T18:22:53.708Z,98902.33
2018-04-22T18:25:22.089Z,98906.68
2018-04-22T18:27:50.505Z,98903.49
2018-04-22T18:30:19.815Z,98914.73
2018-04-22T18:32:48.357Z,98912.39
2018-04-22T18:35:16.742Z,98914.66
2018-04-22T18:37:45.136Z,98920.95
2018-04-22T18:40:16.481Z,98924.23
2018-04-22T18:42:44.656Z,98917.40
2018-04-22T18:45:15.905Z,98935.38
2018-04-22T18:47:44.114Z,98927.20
2018-04-22T18:50:17.326Z,98933.75
2018-04-22T18:52:45.765Z,98937.03
2018-04-22T18:55:16.236Z,98937.77
2018-04-22T18:57:44.623Z,98942.36
2018-04-22T19:00:16.379Z,98869.52
2018-04-22T19:02:44.810Z,98939.59
2018-04-22T19:05:17.447Z,98951.16
2018-04-22T19:07:46.004Z,98952.28
2018-04-22T19:10:16.553Z,98949.42
2018-04-22T19:12:47.128Z,98946.57
2018-04-22T19:15:16.908Z,98935.02
2018-04-22T19:17:45.309Z,98914.66
2018-04-22T19:20:16.713Z,98948.52
2018-04-22T19:22:45.109Z,98946.17
2018-04-22T19:25:17.459Z,98949.81
2018-04-22T19:27:45.876Z,98948.52
2018-04-22T19:30:14.273Z,98948.70
2018-04-22T19:32:42.668Z,98863.28
2018-04-22T19:35:12.957Z,98942.41
2018-04-22T19:37:41.360Z,98940.86
2018-04-22T19:40:16.752Z,98944.92
2018-04-22T19:42:45.357Z,98937.83
2018-04-22T19:45:19.697Z,98948.35
2018-04-22T19:47:48.093Z,98975.55
2018-04-22T19:50:17.375Z,98951.36
2018-04-22T19:52:45.887Z,98949.61
2018-04-22T19:55:17.184Z,98861.17
2018-04-22T19:57:45.563Z,98948.64
2018-04-22T20:00:16.065Z,98948.41
2018-04-22T20:02:44.580Z,98946.64
2018-04-22T20:05:15.940Z,98887.13
2018-04-22T20:07:44.349Z,98943.79
2018-04-22T20:10:15.827Z,98944.66
2018-04-22T20:12:44.411Z,98947.23
2018-04-22T20:15:16.289Z,98947.52
2018-04-22T20:17:44.691Z,98935.45
2018-04-22T20:20:33.323Z,98934.05
2018-04-22T20:23:01.739Z,98939.09
2018-04-22T20:25:30.138Z,98924.03
2018-04-22T20:27:58.559Z,98948.70
2018-04-22T20:30:26.941Z,98949.06
2018-04-22T20:32:55.316Z,98946.16
2018-04-22T20:35:23.737Z,98942.22
2018-04-22T20:37:52.133Z,98943.83
2018-04-22T20:40:20.591Z,98942.92
2018-04-22T20:42:49.184Z,98944.02
2018-04-22T20:45:17.594Z,98945.80
2018-04-22T20:47:46.036Z,98941.55
2018-04-22T20:50:16.400Z,98918.52
2018-04-22T20:52:44.815Z,98938.38
2018-04-22T20:55:16.415Z,98943.38
2018-04-22T20:57:44.817Z,98942.13
2018-04-22T21:00:16.220Z,98944.11
2018-04-22T21:02:44.645Z,98947.91
2018-04-22T21:05:16.837Z,98949.23
2018-04-22T21:07:45.221Z,98951.81
2018-04-22T21:10:13.392Z,98945.25
2018-04-22T21:12:41.806Z,98942.20
2018-04-22T21:15:16.488Z,98962.94
2018-04-22T21:17:44.926Z,98954.05
2018-04-22T21:20:17.105Z,98956.63
2018-04-22T21:22:45.504Z,98944.59
2018-04-22T21:25:15.679Z,98945.58
2018-04-22T21:27:43.885Z,98944.63
2018-04-22T21:30:16.940Z,98950.33
2018-04-22T21:32:45.338Z,98954.53
2018-04-22T21:35:15.969Z,98949.53
2018-04-22T21:37:44.349Z,98957.73
2018-04-22T21:40:12.800Z,98955.39
2018-04-22T21:42:41.300Z,98943.88
2018-04-22T21:45:15.978Z,98941.81
2018-04-22T21:47:45.286Z,98940.92
2018-04-22T21:50:18.474Z,98897.23
2018-04-22T21:52:46.893Z,98946.58
2018-04-22T21:55:15.754Z,98944.10
2018-04-22T21:57:44.164Z,98946.30
2018-04-22T22:00:14.090Z,98940.52
2018-04-22T22:02:42.490Z,98941.78
2018-04-22T22:05:13.440Z,98945.11
2018-04-22T22:07:42.082Z,98940.45
2018-04-22T22:10:16.542Z,98944.55
2018-04-22T22:12:44.932Z,98940.69
2018-04-22T22:15:13.876Z,98942.84
2018-04-22T22:17:42.294Z,98948.32
2018-04-22T22:20:10.698Z,98947.77
2018-04-22T22:22:39.101Z,98942.67
2018-04-22T22:25:11.958Z,98945.09
2018-04-22T22:27:40.383Z,98946.42
2018-04-22T22:30:15.969Z,98944.47
2018-04-22T22:32:44.370Z,98944.53
2018-04-22T22:35:14.732Z,98945.62
2018-04-22T22:37:43.131Z,98945.55
2018-04-22T22:40:15.283Z,98952.30
2018-04-22T22:42:43.701Z,98943.88
2018-04-22T22:45:14.854Z,98948.65
2018-04-22T22:47:43.263Z,98944.39
2018-04-22T22:50:13.166Z,98929.17
2018-04-22T22:52:41.557Z,98951.67
2018-04-22T22:55:16.325Z,98950.13
2018-04-22T22:57:44.953Z,98954.52
2018-04-22T23:00:15.979Z,98952.34
2018-04-22T23:02:44.447Z,98949.16
2018-04-22T23:05:13.076Z,98947.40
2018-04-22T23:07:41.467Z,98952.27
2018-04-22T23:10:16.479Z,98952.27
2018-04-22T23:12:45.116Z,98948.34
2018-04-22T23:15:16.098Z,98954.23
2018-04-22T23:17:44.486Z,98942.39
2018-04-22T23:20:13.663Z,98946.79
2018-04-22T23:22:42.062Z,98933.50
2018-04-22T23:25:10.456Z,98944.64
2018-04-22T23:27:38.830Z,98946.84
2018-04-22T23:30:15.443Z,98945.23
2018-04-22T23:32:43.844Z,98938.68
2018-04-22T23:35:12.475Z,98935.66
2018-04-22T23:37:41.059Z,98942.18
2018-04-22T23:40:14.717Z,98939.67
2018-04-22T23:42:43.138Z,98922.14
2018-04-22T23:45:11.550Z,98932.77
2018-04-22T23:47:39.963Z,98931.48
2018-04-22T23:50:11.760Z,98937.12
2018-04-22T23:52:40.236Z,98932.84
2018-04-22T23:55:13.554Z,98892.67
2018-04-22T23:57:41.944Z,98935.08
